sensor_id;sensor_type;location;lat;lon;timestamp;temperature;humidity
5258;DHT22;2651;51.594;9.928;2022-09-21T00:00:12;8.50;99.90
5258;DHT22;2651;51.594;9.928;2022-09-21T00:01:17;8.50;99.90
5258;DHT22;2651;51.594;9.928;2022-09-21T00:02:19;8.50;99.90
5258;DHT22;2651;51.594;9.928;2022-09-21T00:03:21;8.40;99.90
5258;DHT22;2651;51.594;9.928;2022-09-21T00:04:22;8.40;99.90
5258;DHT22;2651;51.594;9.928;2022-09-21T00:05:24;8.40;99.90
5258;DHT22;2651;51.594;9.928;2022-09-21T00:06:27;8.40;99.90
5258;DHT22;2651;51.594;9.928;2022-09-21T00:07:29;8.40;99.90
5258;DHT22;2651;51.594;9.928;2022-09-21T00:08:31;8.30;99.90
5258;DHT22;2651;51.594;9.928;2022-09-21T00:09:33;8.30;99.90
5258;DHT22;2651;51.594;9.928;2022-09-21T00:10:34;8.30;99.90
5258;DHT22;2651;51.594;9.928;2022-09-21T00:11:36;8.30;99.90
5258;DHT22;2651;51.594;9.928;2022-09-21T00:12:38;8.30;99.90
5258;DHT22;2651;51.594;9.928;2022-09-21T00:13:40;8.30;99.90
5258;DHT22;2651;51.594;9.928;2022-09-21T00:14:42;8.30;99.90
5258;DHT22;2651;51.594;9.928;2022-09-21T00:15:43;8.30;99.90
5258;DHT22;2651;51.594;9.928;2022-09-21T00:16:45;8.30;99.90
5258;DHT22;2651;51.594;9.928;2022-09-21T00:17:51;8.20;99.90
5258;DHT22;2651;51.594;9.928;2022-09-21T00:18:53;8.20;99.90
5258;DHT22;2651;51.594;9.928;2022-09-21T00:19:54;8.10;99.90
5258;DHT22;2651;51.594;9.928;2022-09-21T00:20:56;8.10;99.90
5258;DHT22;2651;51.594;9.928;2022-09-21T00:21:58;8.20;99.90
5258;DHT22;2651;51.594;9.928;2022-09-21T00:22:59;8.20;99.90
5258;DHT22;2651;51.594;9.928;2022-09-21T00:24:01;8.20;99.90
5258;DHT22;2651;51.594;9.928;2022-09-21T00:25:03;8.20;99.90
5258;DHT22;2651;51.594;9.928;2022-09-21T00:26:05;8.20;99.90
5258;DHT22;2651;51.594;9.928;2022-09-21T00:27:07;8.20;99.90
5258;DHT22;2651;51.594;9.928;2022-09-21T00:28:09;8.10;99.90
5258;DHT22;2651;51.594;9.928;2022-09-21T00:29:10;8.10;99.90
5258;DHT22;2651;51.594;9.928;2022-09-21T00:30:12;8.10;99.90
5258;DHT22;2651;51.594;9.928;2022-09-21T00:31:15;8.00;99.90
5258;DHT22;2651;51.594;9.928;2022-09-21T00:32:19;8.00;99.90
5258;DHT22;2651;51.594;9.928;2022-09-21T00:33:20;8.00;99.90
5258;DHT22;2651;51.594;9.928;2022-09-21T00:34:22;7.90;99.90
5258;DHT22;2651;51.594;9.928;2022-09-21T00:35:23;7.90;99.90
5258;DHT22;2651;51.594;9.928;2022-09-21T00:36:26;7.90;99.90
5258;DHT22;2651;51.594;9.928;2022-09-21T00:37:28;7.90;99.90
5258;DHT22;2651;51.594;9.928;2022-09-21T00:38:30;7.90;99.90
5258;DHT22;2651;51.594;9.928;2022-09-21T00:39:31;7.90;99.90
5258;DHT22;2651;51.594;9.928;2022-09-21T00:40:33;8.00;99.90
5258;DHT22;2651;51.594;9.928;2022-09-21T00:41:35;8.00;99.90
5258;DHT22;2651;51.594;9.928;2022-09-21T00:42:36;8.00;99.90
5258;DHT22;2651;51.594;9.928;2022-09-21T00:44:30;8.00;99.90
5258;DHT22;2651;51.594;9.928;2022-09-21T00:45:06;8.00;99.90
5258;DHT22;2651;51.594;9.928;2022-09-21T00:46:20;8.00;99.90
5258;DHT22;2651;51.594;9.928;2022-09-21T00:48:32;8.00;99.90
5258;DHT22;2651;51.594;9.928;2022-09-21T00:49:35;8.00;99.90
5258;DHT22;2651;51.594;9.928;2022-09-21T00:50:41;8.00;99.90
5258;DHT22;2651;51.594;9.928;2022-09-21T00:51:44;8.00;99.90
5258;DHT22;2651;51.594;9.928;2022-09-21T00:52:51;8.00;99.90
5258;DHT22;2651;51.594;9.928;2022-09-21T00:53:59;8.00;99.90
5258;DHT22;2651;51.594;9.928;2022-09-21T00:55:10;8.00;99.90
5258;DHT22;2651;51.594;9.928;2022-09-21T00:56:13;7.90;99.90
5258;DHT22;2651;51.594;9.928;2022-09-21T00:57:17;7.90;99.90
5258;DHT22;2651;51.594;9.928;2022-09-21T00:58:24;7.80;99.90
5258;DHT22;2651;51.594;9.928;2022-09-21T00:59:30;7.70;99.90
5258;DHT22;2651;51.594;9.928;2022-09-21T01:00:32;7.70;99.90
5258;DHT22;2651;51.594;9.928;2022-09-21T01:01:34;7.70;99.90
5258;DHT22;2651;51.594;9.928;2022-09-21T01:02:38;7.60;99.90
5258;DHT22;2651;51.594;9.928;2022-09-21T01:03:40;7.50;99.90
5258;DHT22;2651;51.594;9.928;2022-09-21T01:04:44;7.60;99.90
5258;DHT22;2651;51.594;9.928;2022-09-21T01:05:46;7.60;99.90
5258;DHT22;2651;51.594;9.928;2022-09-21T01:06:47;7.60;99.90
5258;DHT22;2651;51.594;9.928;2022-09-21T01:07:50;7.60;99.90
5258;DHT22;2651;51.594;9.928;2022-09-21T01:08:54;7.60;99.90
5258;DHT22;2651;51.594;9.928;2022-09-21T01:10:00;7.60;99.90
5258;DHT22;2651;51.594;9.928;2022-09-21T01:12:56;7.60;99.90
5258;DHT22;2651;51.594;9.928;2022-09-21T01:15:44;7.70;99.90
5258;DHT22;2651;51.594;9.928;2022-09-21T01:17:11;7.70;99.90
5258;DHT22;2651;51.594;9.928;2022-09-21T01:18:29;7.70;99.90
5258;DHT22;2651;51.594;9.928;2022-09-21T01:21:15;7.70;99.90
5258;DHT22;2651;51.594;9.928;2022-09-21T01:25:27;7.60;99.90
5258;DHT22;2651;51.594;9.928;2022-09-21T01:26:43;7.60;99.90
5258;DHT22;2651;51.594;9.928;2022-09-21T01:28:02;7.60;99.90
5258;DHT22;2651;51.594;9.928;2022-09-21T01:29:19;7.60;99.90
5258;DHT22;2651;51.594;9.928;2022-09-21T01:30:24;7.60;99.90
5258;DHT22;2651;51.594;9.928;2022-09-21T01:31:35;7.60;99.90
5258;DHT22;2651;51.594;9.928;2022-09-21T01:32:45;7.60;99.90
5258;DHT22;2651;51.594;9.928;2022-09-21T01:33:52;7.50;99.90
5258;DHT22;2651;51.594;9.928;2022-09-21T01:35:09;7.60;99.90
5258;DHT22;2651;51.594;9.928;2022-09-21T01:36:15;7.50;99.90
5258;DHT22;2651;51.594;9.928;2022-09-21T01:37:30;7.50;99.90
5258;DHT22;2651;51.594;9.928;2022-09-21T01:38:38;7.50;99.90
5258;DHT22;2651;51.594;9.928;2022-09-21T01:39:43;7.60;99.90
5258;DHT22;2651;51.594;9.928;2022-09-21T01:40:50;7.40;99.90
5258;DHT22;2651;51.594;9.928;2022-09-21T01:41:52;7.40;99.90
5258;DHT22;2651;51.594;9.928;2022-09-21T01:42:56;7.30;99.90
5258;DHT22;2651;51.594;9.928;2022-09-21T01:44:05;7.30;99.90
5258;DHT22;2651;51.594;9.928;2022-09-21T01:45:11;7.30;99.90
5258;DHT22;2651;51.594;9.928;2022-09-21T01:46:20;7.40;99.90
5258;DHT22;2651;51.594;9.928;2022-09-21T01:47:22;7.40;99.90
5258;DHT22;2651;51.594;9.928;2022-09-21T01:48:25;7.40;99.90
5258;DHT22;2651;51.594;9.928;2022-09-21T01:49:32;7.30;99.90
5258;DHT22;2651;51.594;9.928;2022-09-21T01:50:44;7.20;99.90
5258;DHT22;2651;51.594;9.928;2022-09-21T01:51:56;7.20;99.90
5258;DHT22;2651;51.594;9.928;2022-09-21T01:53:02;7.10;99.90
5258;DHT22;2651;51.594;9.928;2022-09-21T01:54:15;7.10;99.90
5258;DHT22;2651;51.594;9.928;2022-09-21T01:55:27;7.10;99.90
5258;DHT22;2651;51.594;9.928;2022-09-21T01:56:35;7.20;99.90
5258;DHT22;2651;51.594;9.928;2022-09-21T01:57:50;7.20;99.90
5258;DHT22;2651;51.594;9.928;2022-09-21T02:00:16;7.30;99.90
5258;DHT22;2651;51.594;9.928;2022-09-21T02:01:20;7.30;99.90
5258;DHT22;2651;51.594;9.928;2022-09-21T02:02:50;7.30;99.90
5258;DHT22;2651;51.594;9.928;2022-09-21T02:03:58;7.30;99.90
5258;DHT22;2651;51.594;9.928;2022-09-21T02:05:04;7.30;99.90
5258;DHT22;2651;51.594;9.928;2022-09-21T02:06:07;7.30;99.90
5258;DHT22;2651;51.594;9.928;2022-09-21T02:07:10;7.30;99.90
5258;DHT22;2651;51.594;9.928;2022-09-21T02:08:12;7.20;99.90
5258;DHT22;2651;51.594;9.928;2022-09-21T02:09:14;7.20;99.90
5258;DHT22;2651;51.594;9.928;2022-09-21T02:10:31;7.20;99.90
5258;DHT22;2651;51.594;9.928;2022-09-21T02:11:34;7.10;99.90
5258;DHT22;2651;51.594;9.928;2022-09-21T02:12:42;7.10;99.90
5258;DHT22;2651;51.594;9.928;2022-09-21T02:13:46;7.10;99.90
5258;DHT22;2651;51.594;9.928;2022-09-21T02:14:49;7.10;99.90
5258;DHT22;2651;51.594;9.928;2022-09-21T02:16:11;7.10;99.90
5258;DHT22;2651;51.594;9.928;2022-09-21T02:17:55;7.10;99.90
5258;DHT22;2651;51.594;9.928;2022-09-21T02:19:27;7.10;99.90
5258;DHT22;2651;51.594;9.928;2022-09-21T02:20:37;7.00;99.90
5258;DHT22;2651;51.594;9.928;2022-09-21T02:23:24;7.00;99.90
5258;DHT22;2651;51.594;9.928;2022-09-21T02:26:12;7.10;99.90
5258;DHT22;2651;51.594;9.928;2022-09-21T02:29:59;7.20;99.90
5258;DHT22;2651;51.594;9.928;2022-09-21T02:33:44;7.20;99.90
5258;DHT22;2651;51.594;9.928;2022-09-21T02:34:52;7.20;99.90
5258;DHT22;2651;51.594;9.928;2022-09-21T02:36:07;7.20;99.90
5258;DHT22;2651;51.594;9.928;2022-09-21T02:38:43;7.20;99.90
5258;DHT22;2651;51.594;9.928;2022-09-21T02:40:02;7.20;99.90
5258;DHT22;2651;51.594;9.928;2022-09-21T02:41:18;7.20;99.90
5258;DHT22;2651;51.594;9.928;2022-09-21T02:42:33;7.20;99.90
5258;DHT22;2651;51.594;9.928;2022-09-21T02:43:46;7.20;99.90
5258;DHT22;2651;51.594;9.928;2022-09-21T02:45:04;7.20;99.90
5258;DHT22;2651;51.594;9.928;2022-09-21T02:46:18;7.20;99.90
5258;DHT22;2651;51.594;9.928;2022-09-21T02:47:38;7.20;99.90
5258;DHT22;2651;51.594;9.928;2022-09-21T02:48:48;7.20;99.90
5258;DHT22;2651;51.594;9.928;2022-09-21T02:49:52;7.10;99.90
5258;DHT22;2651;51.594;9.928;2022-09-21T02:50:57;7.10;99.90
5258;DHT22;2651;51.594;9.928;2022-09-21T02:52:06;7.10;99.90
5258;DHT22;2651;51.594;9.928;2022-09-21T02:53:10;7.10;99.90
5258;DHT22;2651;51.594;9.928;2022-09-21T02:54:19;7.10;99.90
5258;DHT22;2651;51.594;9.928;2022-09-21T02:55:24;7.10;99.90
5258;DHT22;2651;51.594;9.928;2022-09-21T02:56:26;7.00;99.90
5258;DHT22;2651;51.594;9.928;2022-09-21T02:57:29;7.00;99.90
5258;DHT22;2651;51.594;9.928;2022-09-21T02:58:34;7.00;99.90
5258;DHT22;2651;51.594;9.928;2022-09-21T02:59:38;7.00;99.90
5258;DHT22;2651;51.594;9.928;2022-09-21T03:00:40;7.00;99.90
5258;DHT22;2651;51.594;9.928;2022-09-21T03:01:42;7.00;99.90
5258;DHT22;2651;51.594;9.928;2022-09-21T03:02:44;6.90;99.90
5258;DHT22;2651;51.594;9.928;2022-09-21T03:03:47;6.80;99.90
5258;DHT22;2651;51.594;9.928;2022-09-21T03:04:49;6.80;99.90
5258;DHT22;2651;51.594;9.928;2022-09-21T03:05:52;6.80;99.90
5258;DHT22;2651;51.594;9.928;2022-09-21T03:06:54;6.80;99.90
5258;DHT22;2651;51.594;9.928;2022-09-21T03:07:57;6.80;99.90
5258;DHT22;2651;51.594;9.928;2022-09-21T03:08:59;6.80;99.90
5258;DHT22;2651;51.594;9.928;2022-09-21T03:10:01;6.80;99.90
5258;DHT22;2651;51.594;9.928;2022-09-21T03:11:02;6.80;99.90
5258;DHT22;2651;51.594;9.928;2022-09-21T03:12:04;6.90;99.90
5258;DHT22;2651;51.594;9.928;2022-09-21T03:13:07;6.80;99.90
5258;DHT22;2651;51.594;9.928;2022-09-21T03:14:12;6.80;99.90
5258;DHT22;2651;51.594;9.928;2022-09-21T03:15:13;6.90;99.90
5258;DHT22;2651;51.594;9.928;2022-09-21T03:16:16;6.80;99.90
5258;DHT22;2651;51.594;9.928;2022-09-21T03:17:19;6.80;99.90
5258;DHT22;2651;51.594;9.928;2022-09-21T03:18:21;6.80;99.90
5258;DHT22;2651;51.594;9.928;2022-09-21T03:19:22;6.80;99.90
5258;DHT22;2651;51.594;9.928;2022-09-21T03:20:24;6.80;99.90
5258;DHT22;2651;51.594;9.928;2022-09-21T03:21:26;6.80;99.90
5258;DHT22;2651;51.594;9.928;2022-09-21T03:22:28;6.80;99.90
5258;DHT22;2651;51.594;9.928;2022-09-21T03:23:29;6.80;99.90
5258;DHT22;2651;51.594;9.928;2022-09-21T03:24:31;6.80;99.90
5258;DHT22;2651;51.594;9.928;2022-09-21T03:25:51;6.80;99.90
5258;DHT22;2651;51.594;9.928;2022-09-21T03:26:53;6.80;99.90
5258;DHT22;2651;51.594;9.928;2022-09-21T03:27:55;6.80;99.90
5258;DHT22;2651;51.594;9.928;2022-09-21T03:28:56;6.70;99.90
5258;DHT22;2651;51.594;9.928;2022-09-21T03:29:58;6.60;99.90
5258;DHT22;2651;51.594;9.928;2022-09-21T03:31:03;6.60;99.90
5258;DHT22;2651;51.594;9.928;2022-09-21T03:32:05;6.60;99.90
5258;DHT22;2651;51.594;9.928;2022-09-21T03:33:06;6.60;99.90
5258;DHT22;2651;51.594;9.928;2022-09-21T03:34:08;6.60;99.90
5258;DHT22;2651;51.594;9.928;2022-09-21T03:35:11;6.60;99.90
5258;DHT22;2651;51.594;9.928;2022-09-21T03:36:13;6.60;99.90
5258;DHT22;2651;51.594;9.928;2022-09-21T03:37:15;6.60;99.90
5258;DHT22;2651;51.594;9.928;2022-09-21T03:38:18;6.60;99.90
5258;DHT22;2651;51.594;9.928;2022-09-21T03:39:21;6.50;99.90
5258;DHT22;2651;51.594;9.928;2022-09-21T03:40:23;6.50;99.90
5258;DHT22;2651;51.594;9.928;2022-09-21T03:41:24;6.60;99.90
5258;DHT22;2651;51.594;9.928;2022-09-21T03:42:26;6.60;99.90
5258;DHT22;2651;51.594;9.928;2022-09-21T03:43:28;6.60;99.90
5258;DHT22;2651;51.594;9.928;2022-09-21T03:44:29;6.50;99.90
5258;DHT22;2651;51.594;9.928;2022-09-21T03:45:31;6.50;99.90
5258;DHT22;2651;51.594;9.928;2022-09-21T03:46:33;6.50;99.90
5258;DHT22;2651;51.594;9.928;2022-09-21T03:47:38;6.40;99.90
5258;DHT22;2651;51.594;9.928;2022-09-21T03:48:40;6.40;99.90
5258;DHT22;2651;51.594;9.928;2022-09-21T03:49:42;6.40;99.90
5258;DHT22;2651;51.594;9.928;2022-09-21T03:50:44;6.50;99.90
5258;DHT22;2651;51.594;9.928;2022-09-21T03:51:46;6.50;99.90
5258;DHT22;2651;51.594;9.928;2022-09-21T03:52:47;6.50;99.90
5258;DHT22;2651;51.594;9.928;2022-09-21T03:53:49;6.50;99.90
5258;DHT22;2651;51.594;9.928;2022-09-21T03:54:50;6.40;99.90
5258;DHT22;2651;51.594;9.928;2022-09-21T03:55:52;6.40;99.90
5258;DHT22;2651;51.594;9.928;2022-09-21T03:56:53;6.30;99.90
5258;DHT22;2651;51.594;9.928;2022-09-21T03:57:55;6.40;99.90
5258;DHT22;2651;51.594;9.928;2022-09-21T03:58:57;6.40;99.90
5258;DHT22;2651;51.594;9.928;2022-09-21T03:59:59;6.50;99.90
5258;DHT22;2651;51.594;9.928;2022-09-21T04:01:02;6.50;99.90
5258;DHT22;2651;51.594;9.928;2022-09-21T04:02:04;6.50;99.90
5258;DHT22;2651;51.594;9.928;2022-09-21T04:03:05;6.50;99.90
5258;DHT22;2651;51.594;9.928;2022-09-21T04:04:07;6.50;99.90
5258;DHT22;2651;51.594;9.928;2022-09-21T04:05:11;6.50;99.90
5258;DHT22;2651;51.594;9.928;2022-09-21T04:06:15;6.50;99.90
5258;DHT22;2651;51.594;9.928;2022-09-21T04:07:16;6.50;99.90
5258;DHT22;2651;51.594;9.928;2022-09-21T04:08:18;6.50;99.90
5258;DHT22;2651;51.594;9.928;2022-09-21T04:09:19;6.50;99.90
5258;DHT22;2651;51.594;9.928;2022-09-21T04:10:22;6.40;99.90
5258;DHT22;2651;51.594;9.928;2022-09-21T04:11:27;6.30;99.90
5258;DHT22;2651;51.594;9.928;2022-09-21T04:12:29;6.30;99.90
5258;DHT22;2651;51.594;9.928;2022-09-21T04:13:31;6.30;99.90
5258;DHT22;2651;51.594;9.928;2022-09-21T04:14:33;6.30;99.90
5258;DHT22;2651;51.594;9.928;2022-09-21T04:15:35;6.40;99.90
5258;DHT22;2651;51.594;9.928;2022-09-21T04:16:37;6.20;99.90
5258;DHT22;2651;51.594;9.928;2022-09-21T04:17:39;6.20;99.90
5258;DHT22;2651;51.594;9.928;2022-09-21T04:18:41;6.20;99.90
5258;DHT22;2651;51.594;9.928;2022-09-21T04:19:42;6.20;99.90
5258;DHT22;2651;51.594;9.928;2022-09-21T04:20:46;6.20;99.90
5258;DHT22;2651;51.594;9.928;2022-09-21T04:21:47;6.20;99.90
5258;DHT22;2651;51.594;9.928;2022-09-21T04:22:51;6.20;99.90
5258;DHT22;2651;51.594;9.928;2022-09-21T04:23:53;6.20;99.90
5258;DHT22;2651;51.594;9.928;2022-09-21T04:24:54;6.20;99.90
5258;DHT22;2651;51.594;9.928;2022-09-21T04:25:56;6.20;99.90
5258;DHT22;2651;51.594;9.928;2022-09-21T04:26:58;6.30;99.90
5258;DHT22;2651;51.594;9.928;2022-09-21T04:28:00;6.30;99.90
5258;DHT22;2651;51.594;9.928;2022-09-21T04:29:02;6.40;99.90
5258;DHT22;2651;51.594;9.928;2022-09-21T04:30:05;6.40;99.90
5258;DHT22;2651;51.594;9.928;2022-09-21T04:31:07;6.40;99.90
5258;DHT22;2651;51.594;9.928;2022-09-21T04:32:12;6.40;99.90
5258;DHT22;2651;51.594;9.928;2022-09-21T04:33:14;6.40;99.90
5258;DHT22;2651;51.594;9.928;2022-09-21T04:34:16;6.40;99.90
5258;DHT22;2651;51.594;9.928;2022-09-21T04:35:17;6.40;99.90
5258;DHT22;2651;51.594;9.928;2022-09-21T04:36:21;6.50;99.90
5258;DHT22;2651;51.594;9.928;2022-09-21T04:37:22;6.50;99.90
5258;DHT22;2651;51.594;9.928;2022-09-21T04:38:24;6.40;99.90
5258;DHT22;2651;51.594;9.928;2022-09-21T04:39:25;6.50;99.90
5258;DHT22;2651;51.594;9.928;2022-09-21T04:40:27;6.50;99.90
5258;DHT22;2651;51.594;9.928;2022-09-21T04:41:29;6.50;99.90
5258;DHT22;2651;51.594;9.928;2022-09-21T04:42:31;6.50;99.90
5258;DHT22;2651;51.594;9.928;2022-09-21T04:43:32;6.40;99.90
5258;DHT22;2651;51.594;9.928;2022-09-21T04:44:34;6.50;99.90
5258;DHT22;2651;51.594;9.928;2022-09-21T04:45:36;6.50;99.90
5258;DHT22;2651;51.594;9.928;2022-09-21T04:46:37;6.40;99.90
5258;DHT22;2651;51.594;9.928;2022-09-21T04:47:39;6.40;99.90
5258;DHT22;2651;51.594;9.928;2022-09-21T04:48:41;6.40;99.90
5258;DHT22;2651;51.594;9.928;2022-09-21T04:49:42;6.40;99.90
5258;DHT22;2651;51.594;9.928;2022-09-21T04:50:48;6.40;99.90
5258;DHT22;2651;51.594;9.928;2022-09-21T04:51:50;6.40;99.90
5258;DHT22;2651;51.594;9.928;2022-09-21T04:52:51;6.50;99.90
5258;DHT22;2651;51.594;9.928;2022-09-21T04:53:53;6.60;99.90
5258;DHT22;2651;51.594;9.928;2022-09-21T04:54:54;6.60;99.90
5258;DHT22;2651;51.594;9.928;2022-09-21T04:55:56;6.60;99.90
5258;DHT22;2651;51.594;9.928;2022-09-21T04:56:58;6.70;99.90
5258;DHT22;2651;51.594;9.928;2022-09-21T04:58:00;6.70;99.90
5258;DHT22;2651;51.594;9.928;2022-09-21T04:59:01;6.70;99.90
5258;DHT22;2651;51.594;9.928;2022-09-21T05:00:03;6.70;99.90
5258;DHT22;2651;51.594;9.928;2022-09-21T05:01:06;6.80;99.90
5258;DHT22;2651;51.594;9.928;2022-09-21T05:02:08;6.80;99.90
5258;DHT22;2651;51.594;9.928;2022-09-21T05:03:10;6.90;99.90
5258;DHT22;2651;51.594;9.928;2022-09-21T05:04:12;6.90;99.90
5258;DHT22;2651;51.594;9.928;2022-09-21T05:05:13;6.80;99.90
5258;DHT22;2651;51.594;9.928;2022-09-21T05:06:15;6.90;99.90
5258;DHT22;2651;51.594;9.928;2022-09-21T05:07:17;6.90;99.90
5258;DHT22;2651;51.594;9.928;2022-09-21T05:08:19;6.80;99.90
5258;DHT22;2651;51.594;9.928;2022-09-21T05:09:43;6.80;99.90
5258;DHT22;2651;51.594;9.928;2022-09-21T05:11:05;6.80;99.90
5258;DHT22;2651;51.594;9.928;2022-09-21T05:12:06;6.90;99.90
5258;DHT22;2651;51.594;9.928;2022-09-21T05:13:08;6.90;99.90
5258;DHT22;2651;51.594;9.928;2022-09-21T05:14:10;6.90;99.90
5258;DHT22;2651;51.594;9.928;2022-09-21T05:15:12;6.90;99.90
5258;DHT22;2651;51.594;9.928;2022-09-21T05:16:14;7.00;99.90
5258;DHT22;2651;51.594;9.928;2022-09-21T05:17:16;7.00;99.90
5258;DHT22;2651;51.594;9.928;2022-09-21T05:18:18;7.00;99.90
5258;DHT22;2651;51.594;9.928;2022-09-21T05:19:20;6.90;99.90
5258;DHT22;2651;51.594;9.928;2022-09-21T05:20:23;6.90;99.90
5258;DHT22;2651;51.594;9.928;2022-09-21T05:21:25;6.90;99.90
5258;DHT22;2651;51.594;9.928;2022-09-21T05:22:26;6.80;99.90
5258;DHT22;2651;51.594;9.928;2022-09-21T05:23:29;6.90;99.90
5258;DHT22;2651;51.594;9.928;2022-09-21T05:24:31;6.90;99.90
5258;DHT22;2651;51.594;9.928;2022-09-21T05:25:33;6.90;99.90
5258;DHT22;2651;51.594;9.928;2022-09-21T05:26:34;6.90;99.90
5258;DHT22;2651;51.594;9.928;2022-09-21T05:27:36;6.90;99.90
5258;DHT22;2651;51.594;9.928;2022-09-21T05:28:38;6.90;99.90
5258;DHT22;2651;51.594;9.928;2022-09-21T05:29:41;6.90;99.90
5258;DHT22;2651;51.594;9.928;2022-09-21T05:30:51;6.90;99.90
5258;DHT22;2651;51.594;9.928;2022-09-21T05:32:25;6.90;99.90
5258;DHT22;2651;51.594;9.928;2022-09-21T05:33:29;6.80;99.90
5258;DHT22;2651;51.594;9.928;2022-09-21T05:35:57;6.80;99.90
5258;DHT22;2651;51.594;9.928;2022-09-21T05:37:17;6.90;99.90
5258;DHT22;2651;51.594;9.928;2022-09-21T05:38:22;7.00;99.90
5258;DHT22;2651;51.594;9.928;2022-09-21T05:39:24;7.00;99.90
5258;DHT22;2651;51.594;9.928;2022-09-21T05:40:26;7.00;99.90
5258;DHT22;2651;51.594;9.928;2022-09-21T05:41:28;7.10;99.90
5258;DHT22;2651;51.594;9.928;2022-09-21T05:42:30;7.10;99.90
5258;DHT22;2651;51.594;9.928;2022-09-21T05:43:32;7.00;99.90
5258;DHT22;2651;51.594;9.928;2022-09-21T05:44:34;7.00;99.90
5258;DHT22;2651;51.594;9.928;2022-09-21T05:45:41;6.90;99.90
5258;DHT22;2651;51.594;9.928;2022-09-21T05:46:57;6.90;99.90
5258;DHT22;2651;51.594;9.928;2022-09-21T05:48:12;6.90;99.90
5258;DHT22;2651;51.594;9.928;2022-09-21T05:49:21;6.80;99.90
5258;DHT22;2651;51.594;9.928;2022-09-21T05:50:55;6.80;99.90
5258;DHT22;2651;51.594;9.928;2022-09-21T05:55:23;6.90;99.90
5258;DHT22;2651;51.594;9.928;2022-09-21T05:59:42;7.00;99.90
5258;DHT22;2651;51.594;9.928;2022-09-21T06:00:53;7.00;99.90
5258;DHT22;2651;51.594;9.928;2022-09-21T06:02:14;7.00;99.90
5258;DHT22;2651;51.594;9.928;2022-09-21T06:03:26;7.00;99.90
5258;DHT22;2651;51.594;9.928;2022-09-21T06:04:29;7.00;99.90
5258;DHT22;2651;51.594;9.928;2022-09-21T06:05:31;7.00;99.90
5258;DHT22;2651;51.594;9.928;2022-09-21T06:06:32;7.00;99.90
5258;DHT22;2651;51.594;9.928;2022-09-21T06:07:34;7.00;99.90
5258;DHT22;2651;51.594;9.928;2022-09-21T06:08:35;7.00;99.90
5258;DHT22;2651;51.594;9.928;2022-09-21T06:09:37;7.00;99.90
5258;DHT22;2651;51.594;9.928;2022-09-21T06:10:43;6.90;99.90
5258;DHT22;2651;51.594;9.928;2022-09-21T06:11:46;7.00;99.90
5258;DHT22;2651;51.594;9.928;2022-09-21T06:12:47;7.00;99.90
5258;DHT22;2651;51.594;9.928;2022-09-21T06:13:49;7.00;99.90
5258;DHT22;2651;51.594;9.928;2022-09-21T06:14:51;6.90;99.90
5258;DHT22;2651;51.594;9.928;2022-09-21T06:15:52;6.90;99.90
5258;DHT22;2651;51.594;9.928;2022-09-21T06:16:54;6.90;99.90
5258;DHT22;2651;51.594;9.928;2022-09-21T06:17:57;6.90;99.90
5258;DHT22;2651;51.594;9.928;2022-09-21T06:18:59;6.90;99.90
5258;DHT22;2651;51.594;9.928;2022-09-21T06:20:01;7.00;99.90
5258;DHT22;2651;51.594;9.928;2022-09-21T06:21:04;7.00;99.90
5258;DHT22;2651;51.594;9.928;2022-09-21T06:22:05;7.00;99.90
5258;DHT22;2651;51.594;9.928;2022-09-21T06:23:09;7.00;99.90
5258;DHT22;2651;51.594;9.928;2022-09-21T06:24:11;7.00;99.90
5258;DHT22;2651;51.594;9.928;2022-09-21T06:25:13;7.00;99.90
5258;DHT22;2651;51.594;9.928;2022-09-21T06:26:14;7.00;99.90
5258;DHT22;2651;51.594;9.928;2022-09-21T06:27:18;7.00;99.90
5258;DHT22;2651;51.594;9.928;2022-09-21T06:28:19;7.00;99.90
5258;DHT22;2651;51.594;9.928;2022-09-21T06:29:21;7.10;99.90
5258;DHT22;2651;51.594;9.928;2022-09-21T06:30:23;7.10;99.90
5258;DHT22;2651;51.594;9.928;2022-09-21T06:31:26;7.10;99.90
5258;DHT22;2651;51.594;9.928;2022-09-21T06:32:28;7.20;99.90
5258;DHT22;2651;51.594;9.928;2022-09-21T06:33:29;7.20;99.90
5258;DHT22;2651;51.594;9.928;2022-09-21T06:34:31;7.30;99.90
5258;DHT22;2651;51.594;9.928;2022-09-21T06:35:34;7.40;99.90
5258;DHT22;2651;51.594;9.928;2022-09-21T06:36:36;7.50;99.90
5258;DHT22;2651;51.594;9.928;2022-09-21T06:37:37;7.60;99.90
5258;DHT22;2651;51.594;9.928;2022-09-21T06:38:40;7.70;99.90
5258;DHT22;2651;51.594;9.928;2022-09-21T06:39:42;7.70;99.90
5258;DHT22;2651;51.594;9.928;2022-09-21T06:40:44;7.70;99.90
5258;DHT22;2651;51.594;9.928;2022-09-21T06:41:45;7.80;99.90
5258;DHT22;2651;51.594;9.928;2022-09-21T06:42:47;7.90;99.90
5258;DHT22;2651;51.594;9.928;2022-09-21T06:43:52;7.90;99.90
5258;DHT22;2651;51.594;9.928;2022-09-21T06:44:55;8.00;99.90
5258;DHT22;2651;51.594;9.928;2022-09-21T06:46:00;8.00;99.90
5258;DHT22;2651;51.594;9.928;2022-09-21T06:47:02;8.00;99.90
5258;DHT22;2651;51.594;9.928;2022-09-21T06:48:04;8.00;99.90
5258;DHT22;2651;51.594;9.928;2022-09-21T06:49:06;8.00;99.90
5258;DHT22;2651;51.594;9.928;2022-09-21T06:50:08;8.10;99.90
5258;DHT22;2651;51.594;9.928;2022-09-21T06:51:10;8.10;99.90
5258;DHT22;2651;51.594;9.928;2022-09-21T06:52:11;8.20;99.90
5258;DHT22;2651;51.594;9.928;2022-09-21T06:53:13;8.20;99.90
5258;DHT22;2651;51.594;9.928;2022-09-21T06:54:15;8.20;99.90
5258;DHT22;2651;51.594;9.928;2022-09-21T06:55:18;8.10;99.90
5258;DHT22;2651;51.594;9.928;2022-09-21T06:56:21;8.10;99.90
5258;DHT22;2651;51.594;9.928;2022-09-21T06:57:22;8.10;99.90
5258;DHT22;2651;51.594;9.928;2022-09-21T06:58:24;8.20;99.90
5258;DHT22;2651;51.594;9.928;2022-09-21T06:59:26;8.20;99.90
5258;DHT22;2651;51.594;9.928;2022-09-21T07:00:29;8.20;99.90
5258;DHT22;2651;51.594;9.928;2022-09-21T07:01:31;8.30;99.90
5258;DHT22;2651;51.594;9.928;2022-09-21T07:02:33;8.20;99.90
5258;DHT22;2651;51.594;9.928;2022-09-21T07:03:35;8.30;99.90
5258;DHT22;2651;51.594;9.928;2022-09-21T07:04:38;8.30;99.90
5258;DHT22;2651;51.594;9.928;2022-09-21T07:05:39;8.30;99.90
5258;DHT22;2651;51.594;9.928;2022-09-21T07:06:44;8.30;99.90
5258;DHT22;2651;51.594;9.928;2022-09-21T07:07:46;8.40;99.90
5258;DHT22;2651;51.594;9.928;2022-09-21T07:08:50;8.40;99.90
5258;DHT22;2651;51.594;9.928;2022-09-21T07:10:12;8.50;99.90
5258;DHT22;2651;51.594;9.928;2022-09-21T07:11:21;8.60;99.90
5258;DHT22;2651;51.594;9.928;2022-09-21T07:12:24;8.60;99.90
5258;DHT22;2651;51.594;9.928;2022-09-21T07:13:26;8.60;99.90
5258;DHT22;2651;51.594;9.928;2022-09-21T07:14:28;8.70;99.90
5258;DHT22;2651;51.594;9.928;2022-09-21T07:15:30;8.70;99.90
5258;DHT22;2651;51.594;9.928;2022-09-21T07:16:32;8.50;99.90
5258;DHT22;2651;51.594;9.928;2022-09-21T07:17:35;8.50;99.90
5258;DHT22;2651;51.594;9.928;2022-09-21T07:18:39;8.50;99.90
5258;DHT22;2651;51.594;9.928;2022-09-21T07:19:44;8.50;99.90
5258;DHT22;2651;51.594;9.928;2022-09-21T07:20:46;8.50;99.90
5258;DHT22;2651;51.594;9.928;2022-09-21T07:21:54;8.60;99.90
5258;DHT22;2651;51.594;9.928;2022-09-21T07:22:56;8.60;99.90
5258;DHT22;2651;51.594;9.928;2022-09-21T07:24:05;8.60;99.90
5258;DHT22;2651;51.594;9.928;2022-09-21T07:25:19;8.50;99.90
5258;DHT22;2651;51.594;9.928;2022-09-21T07:26:28;8.50;99.90
5258;DHT22;2651;51.594;9.928;2022-09-21T07:27:33;8.40;99.90
5258;DHT22;2651;51.594;9.928;2022-09-21T07:28:35;8.30;99.90
5258;DHT22;2651;51.594;9.928;2022-09-21T07:29:37;8.10;99.90
5258;DHT22;2651;51.594;9.928;2022-09-21T07:30:39;8.00;99.90
5258;DHT22;2651;51.594;9.928;2022-09-21T07:31:43;8.00;99.90
5258;DHT22;2651;51.594;9.928;2022-09-21T07:32:54;7.90;99.90
5258;DHT22;2651;51.594;9.928;2022-09-21T07:33:56;7.90;99.90
5258;DHT22;2651;51.594;9.928;2022-09-21T07:34:59;7.90;99.90
5258;DHT22;2651;51.594;9.928;2022-09-21T07:36:02;7.80;99.90
5258;DHT22;2651;51.594;9.928;2022-09-21T07:37:10;7.80;99.90